Atlanta, GA (30304)

8:11 AM EDT on March 27, 2015 (GMT -0400)
Tim The Technician | | Change Station
CLOSE
Current Station
Personal Weather Station
Location: Forest Park, GA
Elevation: 928 ft
Nearby Weather Stations
Active Advisory: Freeze Watch

Elev 928 ft 33.64 °N, 84.35 °W | Updated 11 seconds ago

Overcast
Overcast
46.2 °F
Feels Like 44 °F
N
4.1
Wind Variable Wind from SSE
Gusts 10.7 mph

Today
High -- | Low -- °F
--% Chance of Precip.
Yesterday
High -- | Low -- °F
Precip. -- in
7:32 AM 7:54 PM
First Quarter, 52% visible
Pressure 29.78 in
Visibility 10.0 miles
Clouds Overcast 1200 ft
Windchill 44 °F
Dew Point 44 °F
Humidity 90%
Rainfall 0.00 in
Snow Depth Not available.
UV 0.0 out of 12
Pollen 9.80 out of 12
Air Quality Not available.
Flu Activity Not available.
METAR KATL 271152Z 31016G22KT 10SM OVC012 08/05 A2979 RMK AO2 PK WND 33026/1120 SLP084 CIG 010V014 60003 70003 T00830050 10133 20083 53014

More Conditions Fewer Conditions

Pressure 29.78 in
Visibility 10.0 miles
Clouds Overcast 1200 ft
Windchill 44 °F
Dew Point 44 °F
Humidity 90%
Rainfall 0.00 in
Snow Depth Not available.
UV 0.0 out of 12
Pollen 9.80 out of 12
Air Quality Not available.
Flu Activity Not available.
METAR KATL 271152Z 31016G22KT 10SM OVC012 08/05 A2979 RMK AO2 PK WND 33026/1120 SLP084 CIG 010V014 60003 70003 T00830050 10133 20083 53014

More Conditions Fewer Conditions

10-Day Weather Forecast

Almanac

Astronomy

Mar. 27, 2015 Rise Set
Actual Time
Civil Twilight
Nautical Twilight
Astronomical Twilight
Moon
Length of Visible Light
Length of Day
Tomorrow will be .
, % of the Moon is Illuminated

Today's Extremes

State Highs State Lows

Community

WunderPhotos

Upload Photos

1,808,711 photos uploaded!

WunderBlogs® & News

Nearby

Air Quality

  Air Quality AQ Index Pollutant
Not available.

Snow Depth

Station Depth Elevation

Earthquake Activity

City Distance Mag. Time & Date
Minimum magnitude displayed is 2.5.

Coastal Water Temperatures

Place Temperature

Stations

Nearby Weather Stations

Station Location Temp. Windchill Dew Point Humidity Wind Precip. Elev Updated Type
                   
Freeze Watch
Statement as of 5:24 AM EDT on March 27, 2015

... Freeze watch in effect from late Saturday night through Sunday
morning...

The National Weather Service in Peachtree City has issued a
freeze watch... which is in effect from late Saturday night
through Sunday morning.

* Locations... all of north Georgia and a portion of central
Georgia from Franklin to Griffin to Warrenton.

* Temperatures... 28 to 32.

* Timing... late Saturday night into Sunday morning.

* Impacts... freezing temperatures could damage tender vegetation.

Precautionary/preparedness actions...

A freeze watch means conditions are favorable for a freeze event
in and close to the watch area. Those with
agricultural interests in the watch area should make
preparations to protect sensitive vegetation and Young trees.